sensor_id;sensor_type;location;lat;lon;timestamp;pressure;altitude;pressure_sealevel;temperature;humidity
5952;BME280;3001;42.622;23.194;2023-03-04T00:02:12;91240.78;;;7.48;100.00
5952;BME280;3001;42.622;23.194;2023-03-04T00:04:39;91239.13;;;7.39;100.00
5952;BME280;3001;42.622;23.194;2023-03-04T00:07:06;91236.31;;;7.35;100.00
5952;BME280;3001;42.622;23.194;2023-03-04T00:09:32;91235.53;;;7.35;100.00
5952;BME280;3001;42.622;23.194;2023-03-04T00:11:59;91229.66;;;7.48;100.00
5952;BME280;3001;42.622;23.194;2023-03-04T00:14:26;91233.47;;;7.37;100.00
5952;BME280;3001;42.622;23.194;2023-03-04T00:16:52;91226.94;;;7.39;100.00
5952;BME280;3001;42.622;23.194;2023-03-04T00:19:20;91233.78;;;7.49;99.75
5952;BME280;3001;42.622;23.194;2023-03-04T00:21:47;91222.22;;;7.46;99.57
5952;BME280;3001;42.622;23.194;2023-03-04T00:24:14;91223.13;;;7.37;100.00
5952;BME280;3001;42.622;23.194;2023-03-04T00:26:40;91225.72;;;7.37;100.00
5952;BME280;3001;42.622;23.194;2023-03-04T00:29:08;91220.09;;;7.48;99.78
5952;BME280;3001;42.622;23.194;2023-03-04T00:31:34;91220.84;;;7.49;99.15
5952;BME280;3001;42.622;23.194;2023-03-04T00:34:01;91215.88;;;7.39;99.66
5952;BME280;3001;42.622;23.194;2023-03-04T00:36:29;91222.34;;;7.36;100.00
5952;BME280;3001;42.622;23.194;2023-03-04T00:38:56;91225.03;;;7.31;100.00
5952;BME280;3001;42.622;23.194;2023-03-04T00:41:22;91227.75;;;7.21;100.00
5952;BME280;3001;42.622;23.194;2023-03-04T00:43:49;91221.34;;;7.19;100.00
5952;BME280;3001;42.622;23.194;2023-03-04T00:46:16;91219.72;;;7.04;100.00
5952;BME280;3001;42.622;23.194;2023-03-04T00:48:42;91216.47;;;6.99;100.00
5952;BME280;3001;42.622;23.194;2023-03-04T00:51:09;91211.34;;;6.94;100.00
5952;BME280;3001;42.622;23.194;2023-03-04T00:53:37;91215.91;;;7.02;100.00
5952;BME280;3001;42.622;23.194;2023-03-04T00:56:05;91205.78;;;6.87;100.00
5952;BME280;3001;42.622;23.194;2023-03-04T00:58:32;91198.03;;;6.87;100.00
5952;BME280;3001;42.622;23.194;2023-03-04T01:00:58;91203.13;;;6.92;100.00
5952;BME280;3001;42.622;23.194;2023-03-04T01:03:25;91202.50;;;7.00;100.00
5952;BME280;3001;42.622;23.194;2023-03-04T01:05:55;91206.63;;;7.01;100.00
5952;BME280;3001;42.622;23.194;2023-03-04T01:08:22;91198.41;;;6.99;100.00
5952;BME280;3001;42.622;23.194;2023-03-04T01:10:50;91200.53;;;6.92;100.00
5952;BME280;3001;42.622;23.194;2023-03-04T01:13:17;91196.03;;;6.84;100.00
5952;BME280;3001;42.622;23.194;2023-03-04T01:15:44;91195.19;;;6.70;100.00
5952;BME280;3001;42.622;23.194;2023-03-04T01:18:11;91200.00;;;6.58;100.00
5952;BME280;3001;42.622;23.194;2023-03-04T01:20:37;91201.09;;;6.52;100.00
5952;BME280;3001;42.622;23.194;2023-03-04T01:23:04;91194.22;;;6.48;100.00
5952;BME280;3001;42.622;23.194;2023-03-04T01:25:31;91189.78;;;6.48;100.00
5952;BME280;3001;42.622;23.194;2023-03-04T01:27:59;91187.06;;;6.40;100.00
5952;BME280;3001;42.622;23.194;2023-03-04T01:30:25;91179.88;;;6.37;100.00
5952;BME280;3001;42.622;23.194;2023-03-04T01:32:52;91183.09;;;6.47;100.00
5952;BME280;3001;42.622;23.194;2023-03-04T01:35:19;91181.72;;;6.36;100.00
5952;BME280;3001;42.622;23.194;2023-03-04T01:37:45;91172.56;;;6.25;100.00
5952;BME280;3001;42.622;23.194;2023-03-04T01:40:13;91182.81;;;6.30;100.00
5952;BME280;3001;42.622;23.194;2023-03-04T01:42:40;91170.91;;;6.34;100.00
5952;BME280;3001;42.622;23.194;2023-03-04T01:45:11;91173.88;;;6.23;100.00
5952;BME280;3001;42.622;23.194;2023-03-04T01:47:39;91172.63;;;6.20;100.00
5952;BME280;3001;42.622;23.194;2023-03-04T01:50:17;91168.94;;;6.26;100.00
5952;BME280;3001;42.622;23.194;2023-03-04T01:52:44;91169.91;;;6.30;100.00
5952;BME280;3001;42.622;23.194;2023-03-04T01:55:15;91167.13;;;6.27;100.00
5952;BME280;3001;42.622;23.194;2023-03-04T01:57:42;91166.69;;;6.20;100.00
5952;BME280;3001;42.622;23.194;2023-03-04T02:00:26;91169.31;;;6.15;100.00
5952;BME280;3001;42.622;23.194;2023-03-04T02:02:57;91164.47;;;6.13;100.00
5952;BME280;3001;42.622;23.194;2023-03-04T02:05:25;91166.19;;;6.18;100.00
5952;BME280;3001;42.622;23.194;2023-03-04T02:07:53;91163.03;;;6.26;100.00
5952;BME280;3001;42.622;23.194;2023-03-04T02:10:21;91168.94;;;6.26;100.00
5952;BME280;3001;42.622;23.194;2023-03-04T02:12:48;91161.97;;;6.27;100.00
5952;BME280;3001;42.622;23.194;2023-03-04T02:15:15;91162.94;;;6.31;100.00
5952;BME280;3001;42.622;23.194;2023-03-04T02:17:43;91164.47;;;6.32;100.00
5952;BME280;3001;42.622;23.194;2023-03-04T02:20:17;91159.88;;;6.29;100.00
5952;BME280;3001;42.622;23.194;2023-03-04T02:22:51;91160.69;;;6.24;100.00
5952;BME280;3001;42.622;23.194;2023-03-04T02:25:23;91164.41;;;6.18;100.00
5952;BME280;3001;42.622;23.194;2023-03-04T02:27:54;91157.75;;;6.12;100.00
5952;BME280;3001;42.622;23.194;2023-03-04T02:30:22;91163.41;;;6.14;100.00
5952;BME280;3001;42.622;23.194;2023-03-04T02:32:50;91156.72;;;6.13;100.00
5952;BME280;3001;42.622;23.194;2023-03-04T02:35:17;91158.59;;;6.08;100.00
5952;BME280;3001;42.622;23.194;2023-03-04T02:37:45;91162.41;;;6.10;100.00
5952;BME280;3001;42.622;23.194;2023-03-04T02:40:14;91155.84;;;5.99;100.00
5952;BME280;3001;42.622;23.194;2023-03-04T02:42:43;91146.13;;;5.91;100.00
5952;BME280;3001;42.622;23.194;2023-03-04T02:45:41;91147.06;;;5.77;100.00
5952;BME280;3001;42.622;23.194;2023-03-04T02:48:08;91154.91;;;5.67;100.00
5952;BME280;3001;42.622;23.194;2023-03-04T02:50:40;91147.19;;;5.67;100.00
5952;BME280;3001;42.622;23.194;2023-03-04T02:53:08;91143.31;;;5.64;100.00
5952;BME280;3001;42.622;23.194;2023-03-04T02:55:35;91144.38;;;5.63;100.00
5952;BME280;3001;42.622;23.194;2023-03-04T02:58:02;91156.16;;;5.69;100.00
5952;BME280;3001;42.622;23.194;2023-03-04T03:00:28;91143.19;;;5.79;100.00
5952;BME280;3001;42.622;23.194;2023-03-04T03:02:56;91142.91;;;5.81;100.00
5952;BME280;3001;42.622;23.194;2023-03-04T03:05:24;91145.16;;;5.87;100.00
5952;BME280;3001;42.622;23.194;2023-03-04T03:07:52;91147.81;;;5.82;100.00
5952;BME280;3001;42.622;23.194;2023-03-04T03:10:19;91149.59;;;5.82;100.00
5952;BME280;3001;42.622;23.194;2023-03-04T03:12:46;91147.56;;;5.79;100.00
5952;BME280;3001;42.622;23.194;2023-03-04T03:15:13;91146.53;;;5.80;100.00
5952;BME280;3001;42.622;23.194;2023-03-04T03:17:40;91145.47;;;5.81;100.00
5952;BME280;3001;42.622;23.194;2023-03-04T03:20:10;91135.50;;;5.74;100.00
5952;BME280;3001;42.622;23.194;2023-03-04T03:22:37;91140.63;;;5.51;100.00
5952;BME280;3001;42.622;23.194;2023-03-04T03:25:05;91137.03;;;5.23;100.00
5952;BME280;3001;42.622;23.194;2023-03-04T03:27:32;91134.53;;;5.18;100.00
5952;BME280;3001;42.622;23.194;2023-03-04T03:29:59;91138.94;;;5.13;100.00
5952;BME280;3001;42.622;23.194;2023-03-04T03:32:25;91132.31;;;5.07;100.00
5952;BME280;3001;42.622;23.194;2023-03-04T03:34:52;91135.50;;;5.22;100.00
5952;BME280;3001;42.622;23.194;2023-03-04T03:37:20;91128.22;;;5.29;100.00
5952;BME280;3001;42.622;23.194;2023-03-04T03:39:46;91127.41;;;5.34;100.00
5952;BME280;3001;42.622;23.194;2023-03-04T03:42:13;91115.25;;;5.39;100.00
5952;BME280;3001;42.622;23.194;2023-03-04T03:44:40;91122.66;;;5.46;100.00
5952;BME280;3001;42.622;23.194;2023-03-04T03:47:07;91125.13;;;5.32;100.00
5952;BME280;3001;42.622;23.194;2023-03-04T03:49:33;91123.47;;;5.41;100.00
5952;BME280;3001;42.622;23.194;2023-03-04T03:52:00;91122.88;;;5.49;100.00
5952;BME280;3001;42.622;23.194;2023-03-04T03:54:28;91131.44;;;5.45;99.08
5952;BME280;3001;42.622;23.194;2023-03-04T03:56:55;91121.34;;;5.20;100.00
5952;BME280;3001;42.622;23.194;2023-03-04T03:59:21;91123.59;;;5.03;100.00
5952;BME280;3001;42.622;23.194;2023-03-04T04:01:49;91124.25;;;4.85;100.00
5952;BME280;3001;42.622;23.194;2023-03-04T04:04:15;91120.19;;;4.79;100.00
5952;BME280;3001;42.622;23.194;2023-03-04T04:06:42;91108.13;;;4.75;100.00
5952;BME280;3001;42.622;23.194;2023-03-04T04:09:09;91107.41;;;4.69;100.00
5952;BME280;3001;42.622;23.194;2023-03-04T04:11:37;91111.50;;;4.70;100.00
5952;BME280;3001;42.622;23.194;2023-03-04T04:14:04;91119.28;;;4.65;100.00
5952;BME280;3001;42.622;23.194;2023-03-04T04:16:31;91109.28;;;4.59;100.00
5952;BME280;3001;42.622;23.194;2023-03-04T04:18:57;91107.44;;;4.64;100.00
5952;BME280;3001;42.622;23.194;2023-03-04T04:21:24;91115.47;;;4.58;100.00
5952;BME280;3001;42.622;23.194;2023-03-04T04:23:51;91117.31;;;4.52;100.00
5952;BME280;3001;42.622;23.194;2023-03-04T04:26:17;91114.44;;;4.59;100.00
5952;BME280;3001;42.622;23.194;2023-03-04T04:28:45;91117.50;;;4.61;100.00
5952;BME280;3001;42.622;23.194;2023-03-04T04:31:12;91111.34;;;4.57;100.00
5952;BME280;3001;42.622;23.194;2023-03-04T04:33:39;91114.28;;;4.45;100.00
5952;BME280;3001;42.622;23.194;2023-03-04T04:36:06;91118.19;;;4.38;100.00
5952;BME280;3001;42.622;23.194;2023-03-04T04:38:33;91119.75;;;4.34;100.00
5952;BME280;3001;42.622;23.194;2023-03-04T04:41:00;91116.75;;;4.17;100.00
5952;BME280;3001;42.622;23.194;2023-03-04T04:43:27;91109.59;;;4.14;100.00
5952;BME280;3001;42.622;23.194;2023-03-04T04:45:58;91116.31;;;4.10;100.00
5952;BME280;3001;42.622;23.194;2023-03-04T04:48:24;91112.47;;;4.02;100.00
5952;BME280;3001;42.622;23.194;2023-03-04T04:50:53;91107.78;;;4.14;100.00
5952;BME280;3001;42.622;23.194;2023-03-04T04:53:20;91107.16;;;4.32;100.00
5952;BME280;3001;42.622;23.194;2023-03-04T04:55:47;91118.41;;;4.41;100.00
5952;BME280;3001;42.622;23.194;2023-03-04T04:58:13;91122.19;;;4.54;100.00
5952;BME280;3001;42.622;23.194;2023-03-04T05:00:40;91116.06;;;4.50;100.00
5952;BME280;3001;42.622;23.194;2023-03-04T05:03:08;91125.00;;;4.52;100.00
5952;BME280;3001;42.622;23.194;2023-03-04T05:05:35;91128.41;;;4.43;100.00
5952;BME280;3001;42.622;23.194;2023-03-04T05:08:01;91132.59;;;4.34;100.00
5952;BME280;3001;42.622;23.194;2023-03-04T05:10:28;91126.72;;;4.28;100.00
5952;BME280;3001;42.622;23.194;2023-03-04T05:12:55;91131.53;;;4.40;99.67
5952;BME280;3001;42.622;23.194;2023-03-04T05:15:21;91133.84;;;4.41;99.13
5952;BME280;3001;42.622;23.194;2023-03-04T05:17:48;91136.13;;;4.43;99.56
5952;BME280;3001;42.622;23.194;2023-03-04T05:20:16;91141.78;;;4.50;100.00
5952;BME280;3001;42.622;23.194;2023-03-04T05:22:43;91144.31;;;4.55;99.83
5952;BME280;3001;42.622;23.194;2023-03-04T05:25:09;91142.47;;;4.55;99.82
5952;BME280;3001;42.622;23.194;2023-03-04T05:27:36;91145.84;;;4.56;100.00
5952;BME280;3001;42.622;23.194;2023-03-04T05:30:04;91142.97;;;4.62;100.00
5952;BME280;3001;42.622;23.194;2023-03-04T05:32:31;91142.19;;;4.62;100.00
5952;BME280;3001;42.622;23.194;2023-03-04T05:34:57;91145.50;;;4.67;100.00
5952;BME280;3001;42.622;23.194;2023-03-04T05:37:25;91152.44;;;4.67;100.00
5952;BME280;3001;42.622;23.194;2023-03-04T05:39:52;91154.44;;;4.75;100.00
5952;BME280;3001;42.622;23.194;2023-03-04T05:42:19;91153.59;;;4.84;100.00
5952;BME280;3001;42.622;23.194;2023-03-04T05:44:45;91150.09;;;5.03;100.00
5952;BME280;3001;42.622;23.194;2023-03-04T05:47:12;91150.16;;;5.27;100.00
5952;BME280;3001;42.622;23.194;2023-03-04T05:49:39;91154.13;;;5.43;100.00
5952;BME280;3001;42.622;23.194;2023-03-04T05:52:06;91153.25;;;5.52;100.00
5952;BME280;3001;42.622;23.194;2023-03-04T05:54:34;91152.25;;;5.48;100.00
5952;BME280;3001;42.622;23.194;2023-03-04T05:57:00;91150.44;;;5.49;100.00
5952;BME280;3001;42.622;23.194;2023-03-04T05:59:27;91157.44;;;5.72;100.00
5952;BME280;3001;42.622;23.194;2023-03-04T06:01:54;91166.41;;;5.79;99.61
5952;BME280;3001;42.622;23.194;2023-03-04T06:04:21;91157.88;;;5.79;100.00
5952;BME280;3001;42.622;23.194;2023-03-04T06:06:47;91158.13;;;5.77;100.00
5952;BME280;3001;42.622;23.194;2023-03-04T06:09:14;91161.66;;;5.86;100.00
5952;BME280;3001;42.622;23.194;2023-03-04T06:11:42;91165.69;;;5.97;100.00
5952;BME280;3001;42.622;23.194;2023-03-04T06:14:09;91159.69;;;6.02;100.00
5952;BME280;3001;42.622;23.194;2023-03-04T06:16:36;91171.00;;;6.06;100.00
5952;BME280;3001;42.622;23.194;2023-03-04T06:19:02;91171.16;;;6.14;100.00
5952;BME280;3001;42.622;23.194;2023-03-04T06:21:29;91173.13;;;6.22;100.00
5952;BME280;3001;42.622;23.194;2023-03-04T06:23:56;91164.59;;;6.22;100.00
5952;BME280;3001;42.622;23.194;2023-03-04T06:26:22;91168.31;;;6.34;100.00
5952;BME280;3001;42.622;23.194;2023-03-04T06:28:50;91169.00;;;6.40;99.51
5952;BME280;3001;42.622;23.194;2023-03-04T06:31:21;91172.16;;;6.37;99.16
5952;BME280;3001;42.622;23.194;2023-03-04T06:33:47;91185.69;;;6.47;99.58
5952;BME280;3001;42.622;23.194;2023-03-04T06:36:14;91178.66;;;6.53;99.84
5952;BME280;3001;42.622;23.194;2023-03-04T06:38:41;91181.66;;;6.60;99.90
5952;BME280;3001;42.622;23.194;2023-03-04T06:41:09;91175.31;;;6.71;98.70
5952;BME280;3001;42.622;23.194;2023-03-04T06:43:37;91187.44;;;6.70;99.12
5952;BME280;3001;42.622;23.194;2023-03-04T06:46:05;91178.09;;;6.74;99.68
5952;BME280;3001;42.622;23.194;2023-03-04T06:48:32;91188.91;;;6.76;100.00
5952;BME280;3001;42.622;23.194;2023-03-04T06:51:04;91192.94;;;7.00;99.39
5952;BME280;3001;42.622;23.194;2023-03-04T06:53:31;91189.50;;;7.05;99.30
5952;BME280;3001;42.622;23.194;2023-03-04T06:55:57;91199.50;;;7.11;99.09
5952;BME280;3001;42.622;23.194;2023-03-04T06:58:24;91195.88;;;7.12;99.55
5952;BME280;3001;42.622;23.194;2023-03-04T07:00:51;91198.16;;;7.14;99.58
5952;BME280;3001;42.622;23.194;2023-03-04T07:03:19;91191.31;;;7.23;99.70
5952;BME280;3001;42.622;23.194;2023-03-04T07:05:45;91189.41;;;7.28;100.00
5952;BME280;3001;42.622;23.194;2023-03-04T07:08:12;91196.25;;;7.38;99.93
5952;BME280;3001;42.622;23.194;2023-03-04T07:10:39;91193.69;;;7.51;99.68
5952;BME280;3001;42.622;23.194;2023-03-04T07:13:05;91192.09;;;7.69;98.99
5952;BME280;3001;42.622;23.194;2023-03-04T07:15:32;91201.22;;;7.80;99.10
5952;BME280;3001;42.622;23.194;2023-03-04T07:18:00;91205.94;;;7.91;98.67
5952;BME280;3001;42.622;23.194;2023-03-04T07:20:28;91197.50;;;7.99;97.81
5952;BME280;3001;42.622;23.194;2023-03-04T07:22:55;91195.09;;;8.03;98.08
5952;BME280;3001;42.622;23.194;2023-03-04T07:25:21;91203.44;;;8.13;96.30
5952;BME280;3001;42.622;23.194;2023-03-04T07:27:48;91203.38;;;8.18;96.41
5952;BME280;3001;42.622;23.194;2023-03-04T07:30:15;91200.31;;;8.30;96.96
5952;BME280;3001;42.622;23.194;2023-03-04T07:32:42;91202.91;;;8.30;97.40
5952;BME280;3001;42.622;23.194;2023-03-04T07:35:08;91204.16;;;8.32;97.16
5952;BME280;3001;42.622;23.194;2023-03-04T07:37:36;91199.44;;;8.48;97.08
5952;BME280;3001;42.622;23.194;2023-03-04T07:40:05;91199.44;;;8.48;96.28
5952;BME280;3001;42.622;23.194;2023-03-04T07:42:33;91198.47;;;8.57;96.16
5952;BME280;3001;42.622;23.194;2023-03-04T07:45:00;91195.69;;;8.53;95.83
5952;BME280;3001;42.622;23.194;2023-03-04T07:47:27;91195.09;;;8.56;95.67
5952;BME280;3001;42.622;23.194;2023-03-04T07:49:54;91197.03;;;8.64;95.13
5952;BME280;3001;42.622;23.194;2023-03-04T07:52:21;91196.78;;;8.74;95.13
5952;BME280;3001;42.622;23.194;2023-03-04T07:54:49;91194.72;;;8.63;95.45
5952;BME280;3001;42.622;23.194;2023-03-04T07:57:16;91202.56;;;8.71;95.80
5952;BME280;3001;42.622;23.194;2023-03-04T07:59:43;91200.25;;;8.83;95.20
5952;BME280;3001;42.622;23.194;2023-03-04T08:02:10;91189.91;;;8.70;95.56
5952;BME280;3001;42.622;23.194;2023-03-04T08:04:37;91190.69;;;8.70;95.23
5952;BME280;3001;42.622;23.194;2023-03-04T08:07:03;91193.25;;;8.70;95.86
5952;BME280;3001;42.622;23.194;2023-03-04T08:09:30;91195.50;;;8.63;96.00
5952;BME280;3001;42.622;23.194;2023-03-04T08:11:58;91195.97;;;8.65;95.63
5952;BME280;3001;42.622;23.194;2023-03-04T08:14:25;91192.09;;;8.76;95.18
5952;BME280;3001;42.622;23.194;2023-03-04T08:16:51;91191.69;;;8.83;95.40
5952;BME280;3001;42.622;23.194;2023-03-04T08:19:18;91197.81;;;9.00;94.59
5952;BME280;3001;42.622;23.194;2023-03-04T08:21:45;91191.72;;;9.05;94.70
5952;BME280;3001;42.622;23.194;2023-03-04T08:24:12;91193.31;;;9.14;93.18
5952;BME280;3001;42.622;23.194;2023-03-04T08:26:41;91183.44;;;9.16;94.10
5952;BME280;3001;42.622;23.194;2023-03-04T08:29:12;91180.63;;;9.26;94.59
5952;BME280;3001;42.622;23.194;2023-03-04T08:31:39;91188.63;;;9.38;94.47
5952;BME280;3001;42.622;23.194;2023-03-04T08:34:06;91186.41;;;9.45;94.81
5952;BME280;3001;42.622;23.194;2023-03-04T08:36:34;91189.22;;;9.35;93.55
5952;BME280;3001;42.622;23.194;2023-03-04T08:39:01;91181.56;;;9.52;92.65
5952;BME280;3001;42.622;23.194;2023-03-04T08:41:28;91185.59;;;9.67;92.74
5952;BME280;3001;42.622;23.194;2023-03-04T08:43:55;91179.28;;;9.81;91.58
5952;BME280;3001;42.622;23.194;2023-03-04T08:46:23;91183.16;;;9.92;91.71
5952;BME280;3001;42.622;23.194;2023-03-04T08:48:49;91180.59;;;9.70;91.98
5952;BME280;3001;42.622;23.194;2023-03-04T08:51:16;91181.56;;;9.83;90.50
5952;BME280;3001;42.622;23.194;2023-03-04T08:53:43;91186.22;;;9.94;89.93
5952;BME280;3001;42.622;23.194;2023-03-04T08:56:11;91173.94;;;10.08;90.46
5952;BME280;3001;42.622;23.194;2023-03-04T08:58:38;91180.66;;;10.09;90.26
5952;BME280;3001;42.622;23.194;2023-03-04T09:01:07;91185.25;;;10.12;89.52
5952;BME280;3001;42.622;23.194;2023-03-04T09:03:36;91172.63;;;10.27;89.38
5952;BME280;3001;42.622;23.194;2023-03-04T09:06:04;91182.59;;;10.34;87.02
5952;BME280;3001;42.622;23.194;2023-03-04T09:08:31;91179.06;;;10.30;87.08
5952;BME280;3001;42.622;23.194;2023-03-04T09:10:58;91178.13;;;10.26;87.15
5952;BME280;3001;42.622;23.194;2023-03-04T09:13:26;91177.63;;;10.16;87.56
5952;BME280;3001;42.622;23.194;2023-03-04T09:15:53;91179.63;;;10.19;87.69
5952;BME280;3001;42.622;23.194;2023-03-04T09:18:21;91179.03;;;10.22;87.06
5952;BME280;3001;42.622;23.194;2023-03-04T09:20:50;91176.75;;;10.28;87.97
5952;BME280;3001;42.622;23.194;2023-03-04T09:23:17;91169.53;;;10.17;89.20
5952;BME280;3001;42.622;23.194;2023-03-04T09:25:45;91166.84;;;10.30;87.32
5952;BME280;3001;42.622;23.194;2023-03-04T09:28:12;91173.41;;;10.28;86.74
5952;BME280;3001;42.622;23.194;2023-03-04T09:30:39;91173.22;;;10.25;87.26
5952;BME280;3001;42.622;23.194;2023-03-04T09:33:06;91164.66;;;10.16;87.41
5952;BME280;3001;42.622;23.194;2023-03-04T09:35:33;91170.34;;;10.26;87.82
5952;BME280;3001;42.622;23.194;2023-03-04T09:38:01;91171.56;;;10.28;88.34
5952;BME280;3001;42.622;23.194;2023-03-04T09:40:31;91174.00;;;10.25;88.15
5952;BME280;3001;42.622;23.194;2023-03-04T09:43:01;91170.19;;;10.31;87.29
5952;BME280;3001;42.622;23.194;2023-03-04T09:45:34;91167.38;;;10.11;85.31
5952;BME280;3001;42.622;23.194;2023-03-04T09:48:02;91170.50;;;10.21;85.98
5952;BME280;3001;42.622;23.194;2023-03-04T09:50:32;91161.94;;;10.21;85.88
5952;BME280;3001;42.622;23.194;2023-03-04T09:53:06;91167.44;;;10.27;86.80
5952;BME280;3001;42.622;23.194;2023-03-04T09:55:41;91166.38;;;10.28;85.73
5952;BME280;3001;42.622;23.194;2023-03-04T09:58:15;91171.72;;;10.32;80.42
5952;BME280;3001;42.622;23.194;2023-03-04T10:00:53;91159.59;;;10.11;81.66
5952;BME280;3001;42.622;23.194;2023-03-04T10:03:23;91161.59;;;10.14;82.54
5952;BME280;3001;42.622;23.194;2023-03-04T10:05:54;91160.22;;;10.16;82.77
5952;BME280;3001;42.622;23.194;2023-03-04T10:08:37;91153.03;;;10.13;82.96
5952;BME280;3001;42.622;23.194;2023-03-04T10:11:12;91154.25;;;10.07;83.23
5952;BME280;3001;42.622;23.194;2023-03-04T10:13:44;91150.72;;;10.03;83.84
5952;BME280;3001;42.622;23.194;2023-03-04T10:16:17;91145.06;;;10.10;84.23
5952;BME280;3001;42.622;23.194;2023-03-04T10:18:48;91151.34;;;10.09;82.74
5952;BME280;3001;42.622;23.194;2023-03-04T10:21:21;91147.41;;;10.20;82.21
5952;BME280;3001;42.622;23.194;2023-03-04T10:23:50;91146.22;;;10.26;81.98
5952;BME280;3001;42.622;23.194;2023-03-04T10:26:19;91146.06;;;10.30;81.63
5952;BME280;3001;42.622;23.194;2023-03-04T10:28:48;91136.47;;;10.31;81.91
5952;BME280;3001;42.622;23.194;2023-03-04T10:31:19;91132.97;;;10.35;82.99
5952;BME280;3001;42.622;23.194;2023-03-04T10:33:48;91127.00;;;10.43;83.90
5952;BME280;3001;42.622;23.194;2023-03-04T10:36:29;91125.66;;;10.46;83.87
5952;BME280;3001;42.622;23.194;2023-03-04T10:39:06;91127.19;;;10.55;82.81
5952;BME280;3001;42.622;23.194;2023-03-04T10:41:33;91129.81;;;10.64;80.14
5952;BME280;3001;42.622;23.194;2023-03-04T10:44:02;91124.13;;;10.70;80.03
5952;BME280;3001;42.622;23.194;2023-03-04T10:46:29;91114.38;;;10.67;77.89
5952;BME280;3001;42.622;23.194;2023-03-04T10:48:56;91115.44;;;10.92;79.17
5952;BME280;3001;42.622;23.194;2023-03-04T10:51:25;91111.78;;;10.93;79.65
5952;BME280;3001;42.622;23.194;2023-03-04T10:53:56;91107.66;;;11.00;78.31
5952;BME280;3001;42.622;23.194;2023-03-04T10:56:36;91103.81;;;10.98;77.46
5952;BME280;3001;42.622;23.194;2023-03-04T10:59:29;91099.53;;;11.02;79.36
5952;BME280;3001;42.622;23.194;2023-03-04T11:01:56;91095.28;;;11.06;78.59
5952;BME280;3001;42.622;23.194;2023-03-04T11:04:24;91089.75;;;11.07;78.23
5952;BME280;3001;42.622;23.194;2023-03-04T11:06:51;91090.19;;;11.35;77.31
5952;BME280;3001;42.622;23.194;2023-03-04T11:09:23;91084.69;;;11.36;74.39
5952;BME280;3001;42.622;23.194;2023-03-04T11:11:52;91077.47;;;11.42;76.28
5952;BME280;3001;42.622;23.194;2023-03-04T11:14:22;91078.50;;;11.49;75.70
5952;BME280;3001;42.622;23.194;2023-03-04T11:16:54;91072.88;;;11.56;78.21
5952;BME280;3001;42.622;23.194;2023-03-04T11:19:23;91055.09;;;11.58;82.69
5952;BME280;3001;42.622;23.194;2023-03-04T11:21:51;91049.56;;;11.76;81.49
5952;BME280;3001;42.622;23.194;2023-03-04T11:24:22;91050.13;;;11.82;83.48
5952;BME280;3001;42.622;23.194;2023-03-04T11:26:54;91052.53;;;11.95;83.87
5952;BME280;3001;42.622;23.194;2023-03-04T11:29:24;91038.75;;;11.95;85.91
5952;BME280;3001;42.622;23.194;2023-03-04T11:31:55;91044.13;;;12.18;84.84
5952;BME280;3001;42.622;23.194;2023-03-04T11:34:30;91047.41;;;12.36;84.34
5952;BME280;3001;42.622;23.194;2023-03-04T11:37:03;91034.97;;;12.33;83.79
5952;BME280;3001;42.622;23.194;2023-03-04T11:39:34;91038.16;;;12.38;83.30
5952;BME280;3001;42.622;23.194;2023-03-04T11:42:09;91032.38;;;12.33;82.25
5952;BME280;3001;42.622;23.194;2023-03-04T11:44:36;91030.59;;;12.25;83.52
5952;BME280;3001;42.622;23.194;2023-03-04T11:47:32;91027.81;;;12.30;83.97
5952;BME280;3001;42.622;23.194;2023-03-04T11:50:14;91023.44;;;12.42;83.64
5952;BME280;3001;42.622;23.194;2023-03-04T11:53:10;91028.63;;;12.42;83.75
5952;BME280;3001;42.622;23.194;2023-03-04T11:55:44;91026.16;;;12.46;82.82
5952;BME280;3001;42.622;23.194;2023-03-04T11:58:37;91030.56;;;12.54;82.21
5952;BME280;3001;42.622;23.194;2023-03-04T12:01:08;91026.31;;;12.49;81.24
5952;BME280;3001;42.622;23.194;2023-03-04T12:04:03;91022.94;;;12.49;80.46
5952;BME280;3001;42.622;23.194;2023-03-04T12:06:39;91020.31;;;12.49;78.97
5952;BME280;3001;42.622;23.194;2023-03-04T12:09:28;91027.00;;;12.38;79.99
5952;BME280;3001;42.622;23.194;2023-03-04T12:12:20;91017.53;;;12.33;75.75
5952;BME280;3001;42.622;23.194;2023-03-04T12:14:57;91019.50;;;12.16;76.24
5952;BME280;3001;42.622;23.194;2023-03-04T12:17:58;91008.63;;;11.85;78.32
5952;BME280;3001;42.622;23.194;2023-03-04T12:20:51;91006.31;;;11.84;79.50
5952;BME280;3001;42.622;23.194;2023-03-04T12:23:37;91002.94;;;11.92;78.82
5952;BME280;3001;42.622;23.194;2023-03-04T12:26:18;91009.03;;;11.96;77.07
5952;BME280;3001;42.622;23.194;2023-03-04T12:28:56;91001.13;;;11.84;77.87
5952;BME280;3001;42.622;23.194;2023-03-04T12:31:33;91003.41;;;11.85;78.87
5952;BME280;3001;42.622;23.194;2023-03-04T12:34:29;90997.72;;;11.92;78.69
5952;BME280;3001;42.622;23.194;2023-03-04T12:37:23;90997.53;;;11.68;75.20
5952;BME280;3001;42.622;23.194;2023-03-04T12:40:07;90998.75;;;11.70;75.44
5952;BME280;3001;42.622;23.194;2023-03-04T12:42:49;90997.13;;;11.49;77.63
5952;BME280;3001;42.622;23.194;2023-03-04T12:45:27;91000.94;;;11.60;78.48
5952;BME280;3001;42.622;23.194;2023-03-04T12:48:07;90998.06;;;11.44;76.21
5952;BME280;3001;42.622;23.194;2023-03-04T12:50:41;90991.06;;;11.36;77.09
5952;BME280;3001;42.622;23.194;2023-03-04T12:53:19;90989.63;;;11.47;78.68
5952;BME280;3001;42.622;23.194;2023-03-04T12:55:52;90988.56;;;11.48;79.17
5952;BME280;3001;42.622;23.194;2023-03-04T12:58:23;90976.38;;;11.40;80.37
5952;BME280;3001;42.622;23.194;2023-03-04T13:01:01;90976.78;;;11.59;79.52
5952;BME280;3001;42.622;23.194;2023-03-04T13:03:37;90975.06;;;11.55;78.10
5952;BME280;3001;42.622;23.194;2023-03-04T13:06:14;90977.13;;;11.32;79.11
5952;BME280;3001;42.622;23.194;2023-03-04T13:08:52;90977.13;;;11.32;79.78
5952;BME280;3001;42.622;23.194;2023-03-04T13:11:44;90971.22;;;11.23;80.07
5952;BME280;3001;42.622;23.194;2023-03-04T13:14:32;90961.94;;;11.05;80.29
5952;BME280;3001;42.622;23.194;2023-03-04T13:17:01;90966.81;;;11.15;80.02
5952;BME280;3001;42.622;23.194;2023-03-04T13:19:47;90973.38;;;11.21;80.30
5952;BME280;3001;42.622;23.194;2023-03-04T13:22:29;90966.50;;;11.17;80.19
5952;BME280;3001;42.622;23.194;2023-03-04T13:25:01;90964.22;;;11.15;79.78
5952;BME280;3001;42.622;23.194;2023-03-04T13:27:44;90960.69;;;11.11;78.92